Time;durP1;ratioP1;P1;durP2;ratioP2;P2;SDS_P1;SDS_P2;PMS_P1;PMS_P2;Temp;Humidity;BMP_temperature;BMP_pressure;BME280_temperature;BME280_humidity;BME280_pressure;Samples;Min_cycle;Max_cycle;Signal;HPM_P1;HPM_P2
2023/06/22 00:01:21;;;;;;;11.15;6.57;;;21.10;99.90;;;-144.05;52.43;56889.19;5012701;28;20077;-89
2023/06/22 00:03:48;;;;;;;9.85;7.50;;;21.10;99.90;;;-144.05;52.67;56916.81;5014324;28;20045;-88
2023/06/22 00:06:13;;;;;;;12.50;6.72;;;21.10;99.90;;;-144.05;52.96;56891.31;5028994;28;20030;-86
2023/06/22 00:08:40;;;;;;;9.15;6.63;;;21.10;99.90;;;-144.05;52.62;56891.31;5029318;28;20395;-89
2023/06/22 00:11:06;;;;;;;8.63;5.97;;;21.10;99.90;;;-144.05;52.74;56914.69;5029356;28;20076;-85
2023/06/22 00:13:32;;;;;;;9.10;6.15;;;21.10;99.90;;;-144.05;52.88;56861.56;5029497;28;20037;-84
2023/06/22 00:15:58;;;;;;;9.75;6.00;;;21.00;99.90;;;-144.05;53.20;56893.44;5030308;28;20065;-85
2023/06/22 00:18:27;;;;;;;8.38;5.82;;;21.00;99.90;;;-144.05;53.42;56897.69;5013617;28;20100;-89
2023/06/22 00:20:57;;;;;;;7.90;5.90;;;20.90;99.90;;;-144.05;53.47;56910.44;5015008;28;20112;-87
2023/06/22 00:23:24;;;;;;;7.93;6.35;;;20.90;99.90;;;-144.05;53.62;56893.44;5030078;28;20026;-89
2023/06/22 00:25:50;;;;;;;9.38;6.05;;;20.80;99.90;;;-144.05;53.95;56874.31;5015241;28;20026;-88
2023/06/22 00:28:16;;;;;;;13.27;6.22;;;20.80;99.90;;;-144.05;54.15;56891.31;5030425;28;20040;-88
2023/06/22 00:30:42;;;;;;;12.18;6.95;;;20.70;99.90;;;-144.05;54.30;56895.56;5030531;28;20026;-85
2023/06/22 00:33:08;;;;;;;13.15;6.53;;;20.70;99.90;;;-144.05;54.81;56878.56;5014595;28;20034;-86
2023/06/22 00:35:34;;;;;;;11.13;5.68;;;20.60;99.90;;;-144.05;54.83;56889.19;5015756;28;20105;-88
2023/06/22 00:38:02;;;;;;;10.02;6.68;;;20.60;99.90;;;-144.05;54.99;56891.31;5031213;28;20934;-88
2023/06/22 00:40:33;;;;;;;9.38;6.72;;;20.60;99.90;;;-144.05;54.81;56880.69;5031587;28;20464;-89
2023/06/22 00:42:59;;;;;;;10.90;5.85;;;20.60;99.90;;;-144.05;55.00;56897.69;5032056;28;20583;-86
2023/06/22 00:45:27;;;;;;;13.02;7.10;;;20.70;99.90;;;-144.05;55.32;56882.81;5036206;28;20022;-88
2023/06/22 00:47:57;;;;;;;8.18;6.28;;;20.60;99.90;;;-144.05;55.16;56895.56;5020871;28;20097;-87
2023/06/22 00:50:32;;;;;;;11.68;6.00;;;20.60;99.90;;;-144.05;55.17;56891.31;5022928;28;20576;-87
2023/06/22 00:53:09;;;;;;;7.60;6.70;;;20.60;99.90;;;-144.05;55.48;56904.06;5036334;28;20034;-88
2023/06/22 00:55:51;;;;;;;9.38;6.22;;;20.60;99.90;;;-144.05;55.55;56889.19;5015921;28;20034;-84
2023/06/22 00:58:21;;;;;;;11.68;5.90;;;20.60;99.90;;;-144.05;55.69;56895.56;5031373;28;20073;-83
2023/06/22 01:00:48;;;;;;;7.90;5.82;;;20.60;99.90;;;-144.05;55.94;56891.31;5014801;28;20041;-83
2023/06/22 01:03:16;;;;;;;8.85;5.40;;;20.50;99.90;;;-144.05;56.09;56925.28;5030860;28;20344;-86
2023/06/22 01:05:46;;;;;;;8.95;6.47;;;20.50;99.90;;;-144.05;56.16;56912.56;5031147;28;20076;-87
2023/06/22 01:09:10;;;;;;;7.28;5.25;;;20.50;99.90;;;-144.05;56.52;56893.44;5030937;28;20466;-86
2023/06/22 01:11:54;;;;;;;9.02;5.55;;;20.40;99.90;;;-144.05;56.96;56906.19;5008072;28;20069;-86
2023/06/22 01:14:41;;;;;;;7.63;4.70;;;20.30;99.90;;;-144.05;57.42;56878.56;5031182;28;20546;-89
2023/06/22 01:17:12;;;;;;;9.95;5.93;;;20.20;99.90;;;-144.05;57.72;56876.44;5015439;28;20037;-87
2023/06/22 01:19:52;;;;;;;8.20;6.30;;;20.20;99.90;;;-144.05;57.95;56904.06;5030729;28;20030;-86
2023/06/22 01:23:18;;;;;;;8.52;5.53;;;20.10;99.90;;;-144.05;58.30;56878.56;5033177;28;20046;-79
2023/06/22 01:26:18;;;;;;;7.32;5.72;;;20.10;99.90;;;-144.05;58.56;56882.81;4996923;28;20046;-85
2023/06/22 01:28:52;;;;;;;10.50;6.45;;;20.10;99.90;;;-144.05;58.74;56891.31;5015324;28;20638;-88
2023/06/22 01:31:26;;;;;;;7.30;5.68;;;20.00;99.90;;;-144.05;58.68;56916.81;5030705;28;20041;-84
2023/06/22 01:34:00;;;;;;;11.50;7.68;;;20.10;99.90;;;-144.05;58.58;56901.94;5031028;28;20041;-85
2023/06/22 01:36:29;;;;;;;11.40;7.43;;;20.10;99.90;;;-144.05;58.45;56887.06;5014163;28;20144;-85
2023/06/22 01:38:57;;;;;;;9.88;7.25;;;20.10;99.90;;;-144.05;58.75;56891.31;5030305;28;20026;-87
2023/06/22 01:41:30;;;;;;;12.85;8.20;;;20.20;99.90;;;-144.05;58.71;56895.56;5030258;28;20026;-85
2023/06/22 01:43:58;;;;;;;10.00;7.72;;;20.20;99.90;;;-144.05;58.80;56891.31;5030413;28;20057;-85
2023/06/22 01:46:25;;;;;;;11.60;8.57;;;20.20;99.90;;;-144.05;58.82;56874.31;5030090;28;20025;-85
2023/06/22 01:48:52;;;;;;;12.70;8.75;;;20.20;99.90;;;-144.05;58.85;56893.44;5015186;28;20033;-85
2023/06/22 01:51:19;;;;;;;11.48;9.55;;;20.20;99.90;;;-144.05;59.07;56876.44;5030043;28;20148;-85
2023/06/22 01:53:45;;;;;;;9.90;7.70;;;20.20;99.90;;;-144.05;58.89;56876.44;5030146;28;20041;-84
2023/06/22 01:56:11;;;;;;;10.90;7.55;;;20.20;99.90;;;-144.05;59.10;56904.06;5029421;28;20587;-85
2023/06/22 01:58:55;;;;;;;13.07;10.15;;;20.20;99.90;;;-144.05;59.50;56887.06;5014697;28;20108;-86
2023/06/22 02:01:33;;;;;;;13.07;9.32;;;20.20;99.90;;;-144.05;59.60;56904.06;5029671;28;20029;-85
2023/06/22 02:04:21;;;;;;;13.85;9.35;;;20.20;99.90;;;-144.05;59.63;56882.81;5030021;28;20026;-87
2023/06/22 02:06:57;;;;;;;15.30;9.40;;;20.10;99.90;;;-144.05;59.65;56893.44;5029888;28;20470;-84
2023/06/22 02:09:28;;;;;;;9.02;7.43;;;20.10;99.90;;;-144.05;59.67;56876.44;5029769;28;20030;-86
2023/06/22 02:11:58;;;;;;;10.00;7.90;;;20.10;99.90;;;-144.05;59.91;56882.81;5014508;28;20037;-86
2023/06/22 02:14:25;;;;;;;8.75;6.85;;;20.00;99.90;;;-144.05;60.08;56870.06;5029449;28;20030;-84
2023/06/22 02:16:53;;;;;;;8.68;7.28;;;20.00;99.90;;;-144.05;60.31;56904.06;5029620;28;20121;-85
2023/06/22 02:19:24;;;;;;;11.57;7.68;;;19.90;99.90;;;-144.05;60.70;56884.94;5014326;28;20061;-86
2023/06/22 02:21:50;;;;;;;13.32;8.70;;;19.90;99.90;;;-144.05;60.93;56872.19;5029835;28;20026;-87
2023/06/22 02:24:16;;;;;;;11.18;8.68;;;19.90;99.90;;;-144.05;61.25;56882.81;5014325;28;20034;-85
2023/06/22 02:26:45;;;;;;;11.75;8.18;;;19.80;99.90;;;-144.05;61.43;56891.31;5014103;28;20049;-87
2023/06/22 02:29:11;;;;;;;12.18;9.23;;;19.80;99.90;;;-144.05;61.75;56887.06;5013018;28;20027;-86
2023/06/22 02:31:37;;;;;;;12.60;9.38;;;19.70;99.90;;;-144.05;61.80;56889.19;5029326;28;20044;-85
2023/06/22 02:34:03;;;;;;;12.45;10.25;;;19.70;99.90;;;-144.05;62.11;56884.94;5012806;28;20112;-86
2023/06/22 02:36:30;;;;;;;15.05;9.43;;;19.70;99.90;;;-144.05;62.16;56874.31;5029107;28;20038;-85
2023/06/22 02:39:00;;;;;;;11.15;8.65;;;19.60;99.90;;;-144.05;62.55;56897.69;5012849;28;20034;-85
2023/06/22 02:41:27;;;;;;;13.05;9.55;;;19.60;99.90;;;-144.05;62.79;56895.56;5013812;28;20456;-85
2023/06/22 02:43:53;;;;;;;9.90;8.18;;;19.60;99.90;;;-144.05;63.06;56901.94;5029226;28;20436;-85
2023/06/22 02:46:19;;;;;;;12.95;9.73;;;19.60;99.90;;;-144.05;63.27;56876.44;5012257;28;20084;-86
2023/06/22 02:48:46;;;;;;;15.13;10.15;;;19.60;99.90;;;-144.05;63.38;56884.94;5028938;28;20048;-85
2023/06/22 02:51:12;;;;;;;15.52;11.38;;;19.50;99.90;;;-144.05;63.65;56895.56;5012715;28;20029;-85
2023/06/22 02:53:44;;;;;;;14.68;10.35;;;19.50;99.90;;;-144.05;63.52;56901.94;5028890;28;20034;-86
2023/06/22 02:56:10;;;;;;;12.43;11.00;;;19.50;99.90;;;-144.05;63.53;56882.81;5028871;28;20038;-87
2023/06/22 02:58:39;;;;;;;10.43;9.20;;;19.50;99.90;;;-144.05;63.58;56874.31;5028542;28;20032;-86
2023/06/22 03:01:06;;;;;;;12.38;10.27;;;19.50;99.90;;;-144.05;63.94;56897.69;5029141;28;20064;-87
2023/06/22 03:03:32;;;;;;;14.85;11.77;;;19.50;99.90;;;-144.05;63.83;56893.44;5014202;28;20080;-86
2023/06/22 03:05:58;;;;;;;10.82;9.25;;;19.50;99.90;;;-144.05;63.68;56901.94;5029057;28;20122;-87
2023/06/22 03:08:24;;;;;;;9.65;7.85;;;19.50;99.90;;;-144.05;63.86;56861.56;5033508;28;20057;-88
2023/06/22 03:10:49;;;;;;;13.30;9.75;;;19.40;99.90;;;-144.05;63.94;56897.69;5022365;28;20558;-85
2023/06/22 03:13:16;;;;;;;10.98;8.57;;;19.40;99.90;;;-144.05;64.21;56880.69;5029646;28;20084;-84
2023/06/22 03:15:42;;;;;;;10.40;8.82;;;19.40;99.90;;;-144.05;64.16;56901.94;5029864;28;20104;-87
2023/06/22 03:18:08;;;;;;;7.82;6.97;;;19.50;99.90;;;-144.05;64.08;56893.44;5030029;28;20029;-85
2023/06/22 03:20:34;;;;;;;9.57;7.82;;;19.50;99.90;;;-144.05;64.36;56882.81;5029679;28;20053;-85
2023/06/22 03:23:00;;;;;;;11.27;9.48;;;19.50;99.90;;;-144.05;64.51;56887.06;5028166;28;20030;-87
2023/06/22 03:25:26;;;;;;;14.68;10.13;;;19.50;99.90;;;-144.05;64.18;56865.81;5028229;28;20034;-88
2023/06/22 03:27:53;;;;;;;14.45;10.70;;;19.50;99.90;;;-144.05;63.96;56897.69;5028685;28;20045;-87
2023/06/22 03:30:19;;;;;;;15.73;11.93;;;19.50;99.90;;;-144.05;63.96;56901.94;5011526;28;20037;-85
2023/06/22 03:32:46;;;;;;;16.40;11.02;;;19.50;99.90;;;-144.05;64.00;56904.06;5027929;28;20026;-86
2023/06/22 03:35:13;;;;;;;10.85;9.38;;;19.50;99.90;;;-144.05;64.19;56861.56;5028094;28;20065;-85
2023/06/22 03:37:39;;;;;;;11.27;8.68;;;19.50;99.90;;;-144.05;64.34;56872.19;5028016;28;20030;-86
2023/06/22 03:40:12;;;;;;;12.52;9.63;;;19.50;99.90;;;-144.05;64.26;56882.81;5117237;27;1235521;-82
2023/06/22 03:42:38;;;;;;;14.43;9.90;;;19.40;99.90;;;-144.05;64.60;56882.81;5111836;28;20051;-82
2023/06/22 03:45:05;;;;;;;14.77;10.48;;;19.40;99.90;;;-144.05;64.40;56897.69;5111392;28;20561;-81
2023/06/22 03:47:32;;;;;;;11.95;9.98;;;19.50;99.90;;;-144.05;64.58;56901.94;5114241;28;20032;-81
2023/06/22 03:49:57;;;;;;;15.00;10.95;;;19.50;99.90;;;-144.05;64.61;56878.56;5117537;28;20258;-82
2023/06/22 03:52:25;;;;;;;14.07;10.50;;;19.40;99.90;;;-144.05;64.57;56895.56;5117733;28;20016;-84
2023/06/22 03:54:51;;;;;;;12.65;10.57;;;19.40;99.90;;;-144.05;64.74;56887.06;5117322;28;20424;-82
2023/06/22 03:57:16;;;;;;;14.80;11.82;;;19.50;99.90;;;-144.05;64.63;56895.56;5115435;28;20051;-82
2023/06/22 03:59:42;;;;;;;15.07;10.20;;;19.40;99.90;;;-144.05;64.85;56901.94;5115400;28;20479;-82
2023/06/22 04:02:09;;;;;;;13.70;10.25;;;19.40;99.90;;;-144.05;64.99;56880.69;5114544;28;20073;-84
2023/06/22 04:04:35;;;;;;;14.45;10.88;;;19.40;99.90;;;-144.05;64.69;56882.81;5115578;28;20466;-80
2023/06/22 04:07:01;;;;;;;11.57;9.88;;;19.50;99.90;;;-144.05;64.58;56897.69;5116234;28;20364;-82
2023/06/22 04:09:26;;;;;;;15.07;11.43;;;19.50;99.90;;;-144.05;64.53;56872.19;5131700;28;20027;-82
2023/06/22 04:11:52;;;;;;;12.40;10.85;;;19.60;99.90;;;-144.05;63.48;56887.06;5114503;28;20032;-84
2023/06/22 04:14:18;;;;;;;13.95;10.32;;;19.60;99.90;;;-144.05;63.34;56863.69;5114505;28;20032;-83
2023/06/22 04:16:44;;;;;;;12.73;11.18;;;19.70;99.90;;;-144.05;63.06;56893.44;5114190;28;20038;-83
2023/06/22 04:19:15;;;;;;;13.57;11.07;;;19.80;99.90;;;-144.05;63.08;56889.19;5115617;28;20032;-82
2023/06/22 04:21:44;;;;;;;14.50;11.43;;;19.80;99.90;;;-144.05;62.94;56884.94;5115718;28;20031;-81
2023/06/22 04:24:11;;;;;;;15.55;10.70;;;19.80;99.90;;;-144.05;62.71;56904.06;5116574;28;20079;-84
2023/06/22 04:26:37;;;;;;;16.83;11.23;;;19.80;99.90;;;-144.05;62.56;56904.06;5115780;28;20084;-85
2023/06/22 04:29:05;;;;;;;17.50;12.20;;;19.90;99.90;;;-144.05;62.40;56876.44;5115088;28;20055;-81
2023/06/22 04:31:36;;;;;;;13.27;11.63;;;19.90;99.90;;;-144.05;62.17;56872.19;5114796;28;20063;-83
2023/06/22 04:34:07;;;;;;;15.93;12.75;;;19.90;99.90;;;-144.05;61.42;56893.44;5114983;28;20020;-83
2023/06/22 04:36:41;;;;;;;19.05;11.77;;;19.90;99.90;;;-144.05;61.20;56916.81;5112881;28;20055;-83
2023/06/22 04:39:13;;;;;;;15.15;11.55;;;20.00;99.90;;;-144.05;61.09;56882.81;5112752;28;20038;-82
2023/06/22 04:41:43;;;;;;;14.18;12.60;;;20.00;99.90;;;-144.05;61.18;56916.81;5114279;28;20053;-84
2023/06/22 04:44:23;;;;;;;14.90;11.80;;;20.00;99.90;;;-144.05;61.45;56918.94;5113385;28;20444;-83
2023/06/22 04:47:08;;;;;;;17.15;12.82;;;20.00;99.90;;;-144.05;61.82;56884.94;5112073;28;20093;-82
2023/06/22 04:49:37;;;;;;;16.23;10.90;;;20.00;99.90;;;-144.05;61.67;56893.44;5111023;28;20110;-82
2023/06/22 04:52:09;;;;;;;15.18;12.85;;;19.90;99.90;;;-144.05;61.46;56925.28;5079090;28;20047;-84
2023/06/22 04:54:39;;;;;;;18.67;13.02;;;19.90;99.90;;;-144.05;61.87;56893.44;5079894;28;20040;-82
2023/06/22 04:57:10;;;;;;;17.15;12.38;;;19.90;99.90;;;-144.05;61.74;56887.06;5080815;28;20111;-81
2023/06/22 04:59:41;;;;;;;16.13;12.25;;;19.90;99.90;;;-144.05;61.43;56867.94;5078932;28;20134;-82
2023/06/22 05:02:08;;;;;;;15.85;11.75;;;19.90;99.90;;;-144.05;61.18;56884.94;5080423;28;20108;-82
2023/06/22 05:04:38;;;;;;;16.40;10.88;;;19.90;99.90;;;-144.05;61.03;56887.06;5080433;28;20132;-81
2023/06/22 05:07:05;;;;;;;16.77;11.70;;;20.00;99.90;;;-144.05;60.99;56895.56;5080043;28;20049;-82
2023/06/22 05:09:31;;;;;;;13.18;10.70;;;20.00;99.90;;;-144.05;60.55;56891.31;5080132;28;20032;-81
2023/06/22 05:11:59;;;;;;;18.33;13.52;;;20.00;99.90;;;-144.05;60.17;56908.31;5079066;28;20044;-84
2023/06/22 05:14:25;;;;;;;14.40;12.90;;;20.10;99.90;;;-144.05;60.01;56882.81;5080850;28;20024;-81
2023/06/22 05:16:51;;;;;;;14.23;11.20;;;20.20;99.90;;;-144.05;60.07;56895.56;5078730;28;20039;-81
2023/06/22 05:19:18;;;;;;;17.92;12.02;;;20.20;99.90;;;-144.05;59.46;56884.94;5078838;28;20027;-82
2023/06/22 05:21:43;;;;;;;14.93;11.65;;;20.30;99.90;;;-144.05;59.58;56918.94;5079814;28;20100;-82
2023/06/22 05:24:09;;;;;;;15.75;12.10;;;20.30;99.90;;;-144.05;59.62;56912.56;5099111;28;20482;-82
2023/06/22 05:26:36;;;;;;;14.25;11.63;;;20.30;99.90;;;-144.05;59.58;56887.06;5099663;28;20032;-82
2023/06/22 05:29:03;;;;;;;15.73;11.02;;;20.30;99.90;;;-144.05;59.50;56910.44;5099530;28;20368;-81
2023/06/22 05:31:30;;;;;;;14.68;11.85;;;20.20;99.90;;;-144.05;59.62;56878.56;5097441;28;20081;-77
2023/06/22 05:33:56;;;;;;;13.75;11.32;;;20.20;99.90;;;-144.05;59.19;56916.81;5096766;28;20043;-79
2023/06/22 05:36:25;;;;;;;13.82;10.88;;;20.30;99.90;;;-144.05;58.79;56921.06;5099783;28;20028;-80
2023/06/22 05:38:52;;;;;;;15.98;10.93;;;20.30;99.90;;;-144.05;58.52;56870.06;5100555;28;20052;-77
2023/06/22 05:41:19;;;;;;;14.18;11.48;;;20.40;99.90;;;-144.05;58.41;56910.44;5095120;28;20026;-78
2023/06/22 05:43:45;;;;;;;15.48;10.55;;;20.50;99.90;;;-144.05;58.17;56910.44;5095673;28;20084;-79
2023/06/22 05:46:11;;;;;;;15.05;11.20;;;20.60;99.90;;;-144.05;57.53;56908.31;5096455;28;20024;-77
2023/06/22 05:48:37;;;;;;;11.80;9.43;;;20.60;99.90;;;-144.05;57.58;56908.31;5096114;28;20406;-78
2023/06/22 05:51:03;;;;;;;13.93;10.48;;;20.70;99.90;;;-144.05;57.41;56908.31;5082416;28;20032;-83
2023/06/22 05:53:29;;;;;;;13.07;9.63;;;20.70;99.90;;;-144.05;56.67;56914.69;5074771;28;20024;-81
2023/06/22 05:55:55;;;;;;;11.75;10.05;;;20.90;99.90;;;-144.05;56.13;56912.56;5074449;28;20033;-82
2023/06/22 05:58:20;;;;;;;11.43;9.48;;;20.90;99.90;;;-144.05;55.57;56889.19;5074867;28;20074;-83
2023/06/22 06:00:47;;;;;;;15.98;10.48;;;21.10;99.90;;;-144.05;55.28;56910.44;5076717;28;20024;-82
2023/06/22 06:03:16;;;;;;;12.90;8.88;;;21.20;99.90;;;-144.05;55.13;56912.56;5074941;28;20119;-81
2023/06/22 06:05:44;;;;;;;11.55;8.43;;;21.30;99.90;;;-144.05;54.96;56923.19;5076423;28;20035;-80
2023/06/22 06:08:11;;;;;;;14.10;10.82;;;21.50;99.90;;;-144.05;54.93;56910.44;5076094;28;20043;-82
2023/06/22 06:10:37;;;;;;;14.20;11.48;;;21.60;99.90;;;-144.05;54.20;56910.44;5076804;28;20032;-82
2023/06/22 06:13:04;;;;;;;13.55;10.38;;;21.60;99.90;;;-144.05;54.45;56931.66;5092998;28;20087;-81
2023/06/22 06:15:32;;;;;;;14.38;10.52;;;21.60;99.90;;;-144.05;55.20;56929.53;5077574;28;20480;-81
2023/06/22 06:17:58;;;;;;;18.15;12.27;;;21.60;99.90;;;-144.05;55.63;56889.19;5075514;28;20379;-83
2023/06/22 06:20:27;;;;;;;18.35;11.77;;;21.60;99.90;;;-144.05;56.08;56918.94;5078705;28;20100;-82
2023/06/22 06:22:53;;;;;;;14.90;10.85;;;21.70;99.90;;;-144.05;55.78;56908.31;5084317;28;20027;-80
2023/06/22 06:25:19;;;;;;;17.33;10.13;;;21.80;99.90;;;-144.05;55.83;56925.28;5086197;28;20032;-81
2023/06/22 06:27:51;;;;;;;12.98;9.38;;;21.90;99.90;;;-144.05;55.10;56921.06;5087170;28;20016;-82
2023/06/22 06:30:19;;;;;;;14.23;10.93;;;22.00;99.90;;;-144.05;55.23;56925.28;5088359;28;20028;-80
2023/06/22 06:32:46;;;;;;;13.90;11.13;;;22.00;99.90;;;-144.05;55.34;56921.06;5087350;28;20036;-79
2023/06/22 06:35:18;;;;;;;18.00;12.25;;;22.00;99.90;;;-144.05;55.69;56912.56;5081544;28;20111;-81
2023/06/22 06:37:47;;;;;;;12.38;10.38;;;22.00;99.90;;;-144.05;55.82;56946.53;5077873;28;20024;-82
2023/06/22 06:40:16;;;;;;;14.43;11.13;;;21.90;99.90;;;-144.05;55.89;56916.81;5091923;28;20029;-81
2023/06/22 06:42:46;;;;;;;15.50;11.43;;;21.90;99.90;;;-144.05;55.89;56942.28;5076212;28;20078;-81
2023/06/22 06:45:22;;;;;;;12.10;10.70;;;21.90;99.90;;;-144.05;56.49;56923.19;5077925;28;20021;-81
2023/06/22 06:47:49;;;;;;;;;;;21.90;99.90;;;-144.05;56.13;56918.94;5077287;28;20029;-81
2023/06/22 06:50:16;;;;;;;16.13;11.23;;;22.00;99.90;;;-144.05;56.29;56929.53;5084085;28;19992;-80
2023/06/22 06:52:43;;;;;;;12.60;10.25;;;22.00;99.90;;;-144.05;56.19;56914.69;5097194;28;20119;-83
2023/06/22 06:55:11;;;;;;;18.52;11.98;;;22.10;99.90;;;-144.05;56.11;56935.91;5113800;28;20024;-79
2023/06/22 06:57:39;;;;;;;12.50;10.98;;;22.20;99.90;;;-144.05;56.11;56916.81;5096911;28;20316;-83
2023/06/22 07:00:13;;;;;;;14.63;12.18;;;22.30;99.90;;;-144.05;56.09;56933.78;5114255;28;20036;-80
2023/06/22 07:02:45;;;;;;;17.35;11.93;;;22.30;99.90;;;-144.05;55.92;56946.53;5096961;28;20201;-82
2023/06/22 07:05:13;;;;;;;15.82;13.35;;;22.20;99.90;;;-144.05;56.97;56916.81;5112586;28;20452;-81
2023/06/22 07:07:39;;;;;;;15.40;11.05;;;22.10;99.90;;;-144.05;57.01;56933.78;5111696;28;20024;-81
2023/06/22 07:10:06;;;;;;;17.83;13.18;;;22.00;99.90;;;-144.05;57.54;56918.94;5095247;28;20031;-81
2023/06/22 07:12:33;;;;;;;12.80;11.18;;;22.00;99.90;;;-144.05;57.53;56946.53;5112420;28;20024;-80
2023/06/22 07:15:10;;;;;;;17.55;12.02;;;22.00;99.90;;;-144.05;57.71;56906.19;5095432;28;20036;-80
2023/06/22 07:17:37;;;;;;;18.63;13.68;;;22.00;99.90;;;-144.05;58.05;56921.06;5109849;28;20028;-80
2023/06/22 07:20:08;;;;;;;15.35;11.43;;;22.00;99.90;;;-144.05;58.36;56918.94;5094142;28;20028;-82
2023/06/22 07:22:34;;;;;;;21.13;13.45;;;21.90;99.90;;;-144.05;58.49;56942.28;5110976;28;20024;-79
2023/06/22 07:25:01;;;;;;;18.58;13.15;;;21.90;99.90;;;-144.05;58.27;56938.03;5113099;28;20081;-84
2023/06/22 07:27:27;;;;;;;18.80;13.88;;;21.90;99.90;;;-144.05;58.27;56912.56;5118818;28;20024;-83
2023/06/22 07:29:52;;;;;;;22.90;14.40;;;21.90;99.90;;;-144.05;58.65;56921.06;5098290;28;20031;-82
2023/06/22 07:32:19;;;;;;;23.90;14.23;;;21.80;99.90;;;-144.05;59.12;56904.06;5096149;28;20131;-82
2023/06/22 07:34:44;;;;;;;17.80;14.23;;;21.70;99.90;;;-144.05;59.50;56925.28;5099483;28;20032;-84
2023/06/22 07:37:10;;;;;;;17.50;13.55;;;21.60;99.90;;;-144.05;59.85;56912.56;5100577;28;20047;-84
2023/06/22 07:39:37;;;;;;;18.13;14.27;;;21.60;99.90;;;-144.05;59.85;56952.91;5100721;28;20024;-83
2023/06/22 07:42:04;;;;;;;18.35;14.00;;;21.60;99.90;;;-144.05;59.57;56935.91;5099778;28;20031;-83
2023/06/22 07:44:29;;;;;;;18.38;13.48;;;21.60;99.90;;;-144.05;59.40;56916.81;5097600;28;20028;-82
2023/06/22 07:46:55;;;;;;;15.70;12.40;;;21.60;99.90;;;-144.05;59.55;56927.41;5097084;28;20062;-84
2023/06/22 07:49:21;;;;;;;16.00;13.13;;;21.60;99.90;;;-144.05;59.51;56921.06;5097680;28;20028;-82
2023/06/22 07:51:47;;;;;;;19.13;13.43;;;21.70;99.90;;;-144.05;59.54;56935.91;5098664;28;20491;-84
2023/06/22 07:54:15;;;;;;;23.98;15.82;;;21.80;99.90;;;-144.05;60.89;56916.81;5100007;28;20032;-84
2023/06/22 07:56:41;;;;;;;23.95;15.82;;;21.80;99.90;;;-144.05;61.40;56935.91;5098254;28;20114;-84
2023/06/22 07:59:07;;;;;;;24.42;14.88;;;21.70;99.90;;;-144.05;62.23;56918.94;5112381;28;20032;-82
2023/06/22 08:01:33;;;;;;;18.20;14.80;;;21.70;99.90;;;-144.05;63.01;56918.94;5096260;28;20460;-85
2023/06/22 08:03:59;;;;;;;17.60;15.43;;;21.70;99.90;;;-144.05;64.26;56927.41;5094673;28;20024;-83
2023/06/22 08:06:25;;;;;;;19.95;16.02;;;21.80;99.90;;;-144.05;64.08;56914.69;5097060;28;20085;-82
2023/06/22 08:08:52;;;;;;;20.58;15.30;;;21.80;99.90;;;-144.05;64.35;56929.53;5097718;28;20503;-84
2023/06/22 08:11:18;;;;;;;18.50;15.75;;;21.90;99.90;;;-144.05;63.20;56942.28;5094806;28;20028;-84
2023/06/22 08:13:44;;;;;;;21.63;16.25;;;22.00;99.90;;;-144.05;62.92;56942.28;5094436;28;20057;-83
2023/06/22 08:16:10;;;;;;;20.42;14.45;;;22.10;99.90;;;-144.05;63.22;56914.69;5095715;28;20031;-82
2023/06/22 08:18:36;;;;;;;17.10;14.88;;;22.30;99.90;;;-144.05;62.54;56938.03;5094182;28;20118;-83
2023/06/22 08:21:02;;;;;;;21.23;14.93;;;22.40;99.90;;;-144.05;62.18;56950.78;5094539;28;20105;-82
2023/06/22 08:23:28;;;;;;;19.58;15.25;;;22.60;99.90;;;-144.05;61.53;56938.03;5096228;28;20023;-83
2023/06/22 08:25:54;;;;;;;16.88;13.15;;;22.70;99.90;;;-144.05;60.71;56931.66;5097702;28;20016;-82
2023/06/22 08:28:20;;;;;;;20.23;14.98;;;22.90;99.90;;;-144.05;59.89;56963.53;5099991;28;20032;-84
2023/06/22 08:30:46;;;;;;;18.40;13.38;;;23.00;99.90;;;-144.05;58.85;56959.28;5099067;28;20399;-82
2023/06/22 08:33:12;;;;;;;19.63;14.15;;;23.10;99.90;;;-144.05;59.31;56955.03;5099829;28;20039;-83
2023/06/22 08:35:38;;;;;;;21.63;15.23;;;23.30;99.90;;;-144.05;57.07;56978.41;5100977;28;20088;-81
2023/06/22 08:38:04;;;;;;;16.77;14.60;;;23.60;99.90;;;-144.05;55.75;56955.03;5098188;28;20105;-83
2023/06/22 08:40:30;;;;;;;19.80;13.82;;;23.90;99.90;;;-144.05;52.89;56999.63;5098894;28;20052;-83
2023/06/22 08:42:56;;;;;;;18.75;14.95;;;24.70;99.90;;;-144.05;50.29;57001.75;5099424;28;20025;-83
2023/06/22 08:45:22;;;;;;;21.23;13.63;;;25.30;99.90;;;-144.05;48.09;57025.13;5098525;28;20024;-83
2023/06/22 08:47:48;;;;;;;15.02;11.77;;;25.80;99.90;;;-144.05;47.41;57063.34;5098649;28;20115;-85
2023/06/22 08:50:14;;;;;;;17.35;12.98;;;26.00;99.90;;;-144.05;47.72;57012.38;5092700;28;20060;-85
2023/06/22 08:52:43;;;;;;;16.15;12.98;;;25.70;99.90;;;-144.05;48.68;57027.25;5081682;28;20032;-84
2023/06/22 08:55:10;;;;;;;19.33;13.32;;;25.40;99.90;;;-144.05;48.93;57018.75;5081107;28;20078;-83
2023/06/22 08:57:39;;;;;;;17.60;13.43;;;25.40;99.90;;;-144.05;48.96;57025.13;5080948;28;20033;-83
2023/06/22 09:00:16;;;;;;;16.80;12.65;;;25.60;99.90;;;-144.05;48.63;56991.13;5080502;28;20037;-83
2023/06/22 09:02:43;;;;;;;15.05;12.35;;;25.80;99.90;;;-144.05;48.46;57012.38;5080199;28;20202;-83
2023/06/22 09:05:09;;;;;;;13.43;11.50;;;25.70;99.90;;;-144.05;48.48;57029.38;5078981;28;20020;-82
2023/06/22 09:07:35;;;;;;;12.77;11.30;;;25.80;99.90;;;-144.05;47.14;57018.75;5078199;28;20416;-85
2023/06/22 09:10:04;;;;;;;12.68;10.73;;;26.30;99.90;;;-144.05;45.27;57076.09;5079798;28;20111;-84
2023/06/22 09:12:32;;;;;;;12.20;10.90;;;26.80;99.90;;;-144.05;44.81;57076.09;5078068;28;20028;-84
2023/06/22 09:15:00;;;;;;;12.25;9.55;;;26.70;99.90;;;-144.05;44.89;57086.72;5080968;28;20024;-85
2023/06/22 09:17:27;;;;;;;10.45;8.93;;;27.00;99.90;;;-144.05;43.65;57107.97;5101819;28;20032;-82
2023/06/22 09:19:53;;;;;;;9.77;8.35;;;27.50;99.90;;;-144.05;42.63;57120.72;5084267;28;20056;-82
2023/06/22 09:22:19;;;;;;;11.25;9.40;;;27.90;99.90;;;-144.05;41.95;57105.84;5099869;28;20033;-83
2023/06/22 09:24:45;;;;;;;9.73;8.73;;;27.80;99.90;;;-144.05;42.51;57086.72;5100725;28;20036;-82
2023/06/22 09:27:11;;;;;;;9.60;8.02;;;27.70;99.90;;;-144.05;42.62;57076.09;5081811;28;20024;-82
2023/06/22 09:29:37;;;;;;;13.60;8.90;;;27.70;99.90;;;-144.05;41.67;57082.47;5083842;28;20025;-83
2023/06/22 09:32:03;;;;;;;9.88;7.32;;;28.00;99.90;;;-144.05;40.79;57086.72;5085036;28;20032;-84
2023/06/22 09:34:31;;;;;;;8.80;7.60;;;28.30;99.90;;;-144.05;41.03;57133.44;5082437;28;20045;-82
2023/06/22 09:37:00;;;;;;;9.57;7.80;;;28.60;99.90;;;-144.05;40.69;57122.84;5083462;28;20488;-81
2023/06/22 09:39:26;;;;;;;8.65;7.22;;;28.60;99.90;;;-144.05;41.79;57139.81;5082082;28;20028;-82
2023/06/22 09:41:52;;;;;;;10.15;7.82;;;28.40;99.90;;;-144.05;41.11;57124.97;5082571;28;20031;-83
2023/06/22 09:44:18;;;;;;;7.85;6.75;;;28.30;99.90;;;-144.05;40.63;57105.84;5082241;28;20056;-84
2023/06/22 09:46:44;;;;;;;9.02;6.80;;;28.50;99.90;;;-144.05;40.26;57124.97;5084759;28;20036;-84
2023/06/22 09:49:10;;;;;;;10.23;7.30;;;28.70;99.90;;;-144.05;40.26;57129.22;5083128;28;20024;-83
2023/06/22 09:54:04;;;;;;;9.00;8.10;;;29.00;99.90;;;-144.05;40.79;57163.19;5103727;22;20052;-87
2023/06/22 09:56:30;;;;;;;8.57;7.35;;;28.80;99.90;;;-144.05;40.77;57161.06;5086010;28;20085;-85
2023/06/22 09:58:56;;;;;;;9.00;7.50;;;28.70;99.90;;;-144.05;40.36;57139.81;5085904;28;20040;-85
2023/06/22 10:01:22;;;;;;;10.52;8.30;;;28.50;99.90;;;-144.05;41.33;57150.44;5085312;28;20032;-88
2023/06/22 10:03:48;;;;;;;9.52;8.48;;;28.50;99.90;;;-144.05;41.42;57139.81;5077442;28;20032;-86
2023/06/22 10:06:14;;;;;;;9.75;7.70;;;28.60;99.90;;;-144.05;41.35;57133.44;5045245;28;20029;-86